createdAt,value
2019-04-28T00:02:17.546Z,11.45
2019-04-28T00:04:47.163Z,11.44
2019-04-28T00:07:16.753Z,11.43
2019-04-28T00:09:46.319Z,11.40
2019-04-28T00:12:15.791Z,11.39
2019-04-28T00:14:45.747Z,11.38
2019-04-28T00:17:15.261Z,11.34
2019-04-28T00:19:44.832Z,11.32
2019-04-28T00:22:31.337Z,11.31
2019-04-28T00:25:02.509Z,11.28
2019-04-28T00:27:32.012Z,11.26
2019-04-28T00:30:02.091Z,11.25
2019-04-28T00:32:32.534Z,11.25
2019-04-28T00:35:02.528Z,11.23
2019-04-28T00:37:33.224Z,11.23
2019-04-28T00:40:02.817Z,11.22
2019-04-28T00:42:32.293Z,11.21
2019-04-28T00:45:02.047Z,11.19
2019-04-28T00:47:31.751Z,11.18
2019-04-28T00:50:02.096Z,11.17
2019-04-28T00:52:32.161Z,11.17
2019-04-28T00:55:01.815Z,11.17
2019-04-28T00:57:31.369Z,11.16
2019-04-28T01:00:02.458Z,11.16
2019-04-28T01:02:41.254Z,11.16
2019-04-28T01:05:11.883Z,11.16
2019-04-28T01:07:41.601Z,11.16
2019-04-28T01:10:12.831Z,11.16
2019-04-28T01:12:42.419Z,11.16
2019-04-28T01:15:14.310Z,11.16
2019-04-28T01:17:57.189Z,11.15
2019-04-28T01:20:26.834Z,11.15
2019-04-28T01:22:56.361Z,11.15
2019-04-28T01:25:25.860Z,11.14
2019-04-28T01:27:55.982Z,11.14
2019-04-28T01:30:29.882Z,11.12
2019-04-28T01:33:03.795Z,11.13
2019-04-28T01:35:33.419Z,11.13
2019-04-28T01:38:02.887Z,11.13
2019-04-28T01:40:33.915Z,11.14
2019-04-28T01:43:03.467Z,11.15
2019-04-28T01:45:32.957Z,11.15
2019-04-28T01:48:02.485Z,11.14
2019-04-28T01:50:31.972Z,11.14
2019-04-28T01:53:01.444Z,11.14
2019-04-28T01:55:30.918Z,11.15
2019-04-28T01:58:00.398Z,11.15
2019-04-28T02:00:37.295Z,11.15
2019-04-28T02:03:10.318Z,11.16
2019-04-28T02:05:40.549Z,11.17
2019-04-28T02:08:10.320Z,11.16
2019-04-28T02:10:40.249Z,11.18
2019-04-28T02:13:11.368Z,11.18
2019-04-28T02:15:40.980Z,11.18
2019-04-28T02:18:10.474Z,11.19
2019-04-28T02:20:41.678Z,11.19
2019-04-28T02:23:15.526Z,11.19
2019-04-28T02:25:45.064Z,11.19
2019-04-28T02:28:14.558Z,11.22
2019-04-28T02:30:49.189Z,11.21
2019-04-28T02:33:15.320Z,11.22
2019-04-28T02:35:45.055Z,11.23
2019-04-28T02:38:14.557Z,11.24
2019-04-28T02:40:44.179Z,11.26
2019-04-28T02:43:13.759Z,11.27
2019-04-28T02:45:43.622Z,11.27
2019-04-28T02:48:14.824Z,11.27
2019-04-28T02:50:50.890Z,11.25
2019-04-28T02:53:33.171Z,11.26
2019-04-28T02:56:01.192Z,11.24
2019-04-28T02:58:31.375Z,11.23
2019-04-28T03:01:11.155Z,11.22
2019-04-28T03:03:32.201Z,11.21
2019-04-28T03:06:01.847Z,11.19
2019-04-28T03:08:31.343Z,11.18
2019-04-28T03:11:02.435Z,11.19
2019-04-28T03:13:32.101Z,11.17
2019-04-28T03:16:01.944Z,11.18
2019-04-28T03:18:31.946Z,11.18
2019-04-28T03:21:04.238Z,11.18
2019-04-28T03:23:33.201Z,11.19
2019-04-28T03:26:04.298Z,11.20
2019-04-28T03:28:33.897Z,11.20
2019-04-28T03:31:36.597Z,11.21
2019-04-28T03:33:47.429Z,11.21
2019-04-28T03:36:15.617Z,11.22
2019-04-28T03:38:41.581Z,11.22
2019-04-28T03:41:11.814Z,11.23
2019-04-28T03:43:41.302Z,11.24
2019-04-28T03:46:15.101Z,11.27
2019-04-28T03:48:44.595Z,11.28
2019-04-28T03:51:14.102Z,11.29
2019-04-28T03:53:43.582Z,11.31
2019-04-28T03:56:13.176Z,11.33
2019-04-28T03:58:42.751Z,11.35
2019-04-28T04:01:12.252Z,11.36
2019-04-28T04:03:42.036Z,11.38
2019-04-28T04:06:11.446Z,11.38
2019-04-28T04:08:41.095Z,11.40
2019-04-28T04:11:11.003Z,11.41
2019-04-28T04:13:51.458Z,11.42
2019-04-28T04:16:31.748Z,11.42
2019-04-28T04:19:05.886Z,11.44
2019-04-28T04:21:37.053Z,11.45
2019-04-28T04:24:06.552Z,11.45
2019-04-28T04:26:36.034Z,11.46
2019-04-28T04:29:05.655Z,11.46
2019-04-28T04:31:35.210Z,11.46
2019-04-28T04:34:04.778Z,11.47
2019-04-28T04:36:34.474Z,11.48
2019-04-28T04:39:06.399Z,11.49
2019-04-28T04:41:36.238Z,11.50
2019-04-28T04:44:05.861Z,11.50
2019-04-28T04:46:35.337Z,11.50
2019-04-28T04:49:24.269Z,11.51
2019-04-28T04:51:53.760Z,11.50
2019-04-28T04:54:23.221Z,11.53
2019-04-28T04:56:52.707Z,11.54
2019-04-28T04:59:22.173Z,11.56
2019-04-28T05:02:02.010Z,11.56
2019-04-28T05:04:36.079Z,11.57
2019-04-28T05:07:05.589Z,11.57
2019-04-28T05:09:35.047Z,11.57
2019-04-28T05:12:04.693Z,11.57
2019-04-28T05:14:34.320Z,11.56
2019-04-28T05:17:03.784Z,11.58
2019-04-28T05:19:33.271Z,11.59
2019-04-28T05:22:03.007Z,11.60
2019-04-28T05:24:51.134Z,11.60
2019-04-28T05:27:25.378Z,11.60
2019-04-28T05:29:56.855Z,11.61
2019-04-28T05:32:23.969Z,11.63
2019-04-28T05:34:53.547Z,11.62
2019-04-28T05:37:23.023Z,11.62
2019-04-28T05:39:52.738Z,11.65
2019-04-28T05:42:22.303Z,11.66
2019-04-28T05:44:51.868Z,11.68
2019-04-28T05:47:21.526Z,11.69
2019-04-28T05:49:52.668Z,11.71
2019-04-28T05:52:35.816Z,11.72
2019-04-28T05:55:17.093Z,11.73
2019-04-28T05:57:53.792Z,11.76
2019-04-28T06:00:25.610Z,11.77
2019-04-28T06:02:57.041Z,11.77
2019-04-28T06:05:26.661Z,11.80
2019-04-28T06:08:06.682Z,11.81
2019-04-28T06:10:36.283Z,11.83
2019-04-28T06:13:05.891Z,11.85
2019-04-28T06:15:35.899Z,11.85
2019-04-28T06:18:05.498Z,11.84
2019-04-28T06:20:35.046Z,11.82
2019-04-28T06:23:04.688Z,11.80
2019-04-28T06:25:34.194Z,11.77
2019-04-28T06:28:03.692Z,11.75
2019-04-28T06:30:33.236Z,11.73
2019-04-28T06:33:08.206Z,11.70
2019-04-28T06:35:33.952Z,11.70
2019-04-28T06:38:03.458Z,11.72
2019-04-28T06:40:32.954Z,11.74
2019-04-28T06:43:02.495Z,11.77
2019-04-28T06:45:31.951Z,11.82
2019-04-28T06:48:01.443Z,11.88
2019-04-28T06:50:31.023Z,11.97
2019-04-28T06:53:02.777Z,12.05
2019-04-28T06:55:31.874Z,12.15
2019-04-28T06:58:01.352Z,12.22
2019-04-28T07:00:30.813Z,12.30
2019-04-28T07:03:00.310Z,12.37
2019-04-28T07:05:29.859Z,12.43
2019-04-28T07:07:59.429Z,12.51
2019-04-28T07:10:28.882Z,12.60
2019-04-28T07:12:58.472Z,12.71
2019-04-28T07:15:28.079Z,12.81
2019-04-28T07:17:57.720Z,12.93
2019-04-28T07:20:42.028Z,13.04
2019-04-28T07:23:12.194Z,13.16
2019-04-28T07:25:41.704Z,13.26
2019-04-28T07:28:11.280Z,13.37
2019-04-28T07:30:41.823Z,13.45
2019-04-28T07:33:11.425Z,13.53
2019-04-28T07:35:40.932Z,13.59
2019-04-28T07:38:10.437Z,13.61
2019-04-28T07:40:40.033Z,13.62
2019-04-28T07:43:09.600Z,13.62
2019-04-28T07:45:39.247Z,13.64
2019-04-28T07:48:28.148Z,13.64
2019-04-28T07:50:57.628Z,13.67
2019-04-28T07:53:32.884Z,13.73
2019-04-28T07:56:02.406Z,13.79
2019-04-28T07:58:32.015Z,13.87
2019-04-28T08:01:01.628Z,13.93
2019-04-28T08:03:31.141Z,13.98
2019-04-28T08:06:00.618Z,14.01
2019-04-28T08:08:30.135Z,14.06
2019-04-28T08:10:59.622Z,14.13
2019-04-28T08:13:29.145Z,14.22
2019-04-28T08:15:58.631Z,14.28
2019-04-28T08:18:28.104Z,14.34
2019-04-28T08:20:57.602Z,14.36
2019-04-28T08:23:47.638Z,14.41
2019-04-28T08:26:17.414Z,14.46
2019-04-28T08:28:46.905Z,14.55
2019-04-28T08:31:18.026Z,14.63
2019-04-28T08:34:01.669Z,14.70
2019-04-28T08:36:23.091Z,14.78
2019-04-28T08:38:52.586Z,14.85
2019-04-28T08:41:22.097Z,14.89
2019-04-28T08:43:51.652Z,14.89
2019-04-28T08:46:21.243Z,14.90
2019-04-28T08:48:50.778Z,14.92
2019-04-28T08:51:20.419Z,14.99
2019-04-28T08:53:49.960Z,15.11
2019-04-28T08:56:19.471Z,15.25
2019-04-28T08:58:49.018Z,15.40
2019-04-28T09:01:18.483Z,15.59
2019-04-28T09:03:47.976Z,15.76
2019-04-28T09:06:17.596Z,15.95
2019-04-28T09:08:47.124Z,16.11
2019-04-28T09:11:16.570Z,16.27
2019-04-28T09:13:46.149Z,16.43
2019-04-28T09:16:15.654Z,16.51
2019-04-28T09:18:45.199Z,16.54
2019-04-28T09:21:14.843Z,16.51
2019-04-28T09:23:44.288Z,16.46
2019-04-28T09:26:13.815Z,16.44
2019-04-28T09:28:43.397Z,16.41
2019-04-28T09:31:12.964Z,16.38
2019-04-28T09:33:42.468Z,16.32
2019-04-28T09:36:12.023Z,16.25
2019-04-28T09:38:41.810Z,16.18
2019-04-28T09:41:11.290Z,16.10
2019-04-28T09:43:55.649Z,16.03
2019-04-28T09:46:26.790Z,15.97
2019-04-28T09:48:56.256Z,15.91
2019-04-28T09:51:25.777Z,15.85
2019-04-28T09:53:55.349Z,15.79
2019-04-28T09:56:24.877Z,15.74
2019-04-28T09:58:54.489Z,15.73
2019-04-28T10:01:23.956Z,15.70
2019-04-28T10:03:53.632Z,15.62
2019-04-28T10:06:23.188Z,15.68
2019-04-28T10:08:52.767Z,15.66
2019-04-28T10:11:30.425Z,15.62
2019-04-28T10:13:53.597Z,15.56
2019-04-28T10:16:23.241Z,15.50
2019-04-28T10:18:52.708Z,15.44
2019-04-28T10:21:22.374Z,15.36
2019-04-28T10:23:51.855Z,15.29
2019-04-28T10:26:21.427Z,15.24
2019-04-28T10:28:50.945Z,15.20
2019-04-28T10:31:20.704Z,15.19
2019-04-28T10:33:51.864Z,15.23
2019-04-28T10:36:21.514Z,15.28
2019-04-28T10:38:52.734Z,15.34
2019-04-28T10:41:32.888Z,15.42
2019-04-28T10:44:02.431Z,15.51
2019-04-28T10:46:31.977Z,15.63
2019-04-28T10:49:01.560Z,15.73
2019-04-28T10:51:31.033Z,15.86
2019-04-28T10:54:00.536Z,15.99
2019-04-28T10:56:30.326Z,16.14
2019-04-28T10:59:00.670Z,16.30
2019-04-28T11:01:30.189Z,16.42
2019-04-28T11:04:17.063Z,16.52
2019-04-28T11:06:46.635Z,16.57
2019-04-28T11:09:30.081Z,16.58
2019-04-28T11:11:49.226Z,16.57
2019-04-28T11:14:18.688Z,16.58
2019-04-28T11:16:48.324Z,16.57
2019-04-28T11:19:17.807Z,16.56
2019-04-28T11:22:06.835Z,16.53
2019-04-28T11:24:36.382Z,16.52
2019-04-28T11:27:06.165Z,16.52
2019-04-28T11:29:35.645Z,16.54
2019-04-28T11:32:05.240Z,16.55
2019-04-28T11:34:52.520Z,16.56
2019-04-28T11:37:22.125Z,16.59
2019-04-28T11:39:52.198Z,16.60
2019-04-28T11:42:21.695Z,16.61
2019-04-28T11:44:51.181Z,16.67
2019-04-28T11:47:22.345Z,16.74
2019-04-28T11:49:51.831Z,16.80
2019-04-28T11:52:21.351Z,16.85
2019-04-28T11:54:50.847Z,16.89
2019-04-28T11:57:20.427Z,16.93
2019-04-28T11:59:49.926Z,17.03
2019-04-28T12:02:19.432Z,17.14
2019-04-28T12:04:49.064Z,17.25
2019-04-28T12:07:18.605Z,17.34
2019-04-28T12:10:04.201Z,17.39
2019-04-28T12:12:39.656Z,17.44
2019-04-28T12:15:29.303Z,17.54
2019-04-28T12:18:02.883Z,17.67
2019-04-28T12:20:32.323Z,17.82
2019-04-28T12:23:01.781Z,17.87
2019-04-28T12:25:31.346Z,17.91
2019-04-28T12:28:00.922Z,17.97
2019-04-28T12:30:30.390Z,18.06
2019-04-28T12:33:19.331Z,18.11
2019-04-28T12:35:48.802Z,18.13
2019-04-28T12:38:18.304Z,18.10
2019-04-28T12:40:47.892Z,18.05
2019-04-28T12:43:17.372Z,17.98
2019-04-28T12:45:47.021Z,17.90
2019-04-28T12:48:16.580Z,17.83
2019-04-28T12:50:52.917Z,17.72
2019-04-28T12:53:23.165Z,17.62
2019-04-28T12:55:52.639Z,17.52
2019-04-28T12:58:22.105Z,17.38
2019-04-28T13:00:53.285Z,17.25
2019-04-28T13:03:51.945Z,17.15
2019-04-28T13:06:22.910Z,17.04
2019-04-28T13:08:52.457Z,16.93
2019-04-28T13:11:21.981Z,16.84
2019-04-28T13:13:51.551Z,16.75
2019-04-28T13:16:21.143Z,16.68
2019-04-28T13:18:50.720Z,16.60
2019-04-28T13:21:20.295Z,16.53
2019-04-28T13:23:49.828Z,16.49
2019-04-28T13:26:19.363Z,16.44
2019-04-28T13:28:48.856Z,16.40
2019-04-28T13:31:18.349Z,16.40
2019-04-28T13:33:56.411Z,16.41
2019-04-28T13:36:19.051Z,16.44
2019-04-28T13:38:48.682Z,16.49
2019-04-28T13:41:18.190Z,16.53
2019-04-28T13:43:47.639Z,16.55
2019-04-28T13:46:17.142Z,16.61
2019-04-28T13:48:46.648Z,16.70
2019-04-28T13:51:16.150Z,16.77
2019-04-28T13:53:45.636Z,16.83
2019-04-28T13:56:15.170Z,16.92
2019-04-28T13:58:45.069Z,17.05
2019-04-28T14:01:25.034Z,17.18
2019-04-28T14:03:57.105Z,17.33
2019-04-28T14:06:28.919Z,17.47
2019-04-28T14:08:58.553Z,17.58
2019-04-28T14:11:28.069Z,17.66
2019-04-28T14:13:57.573Z,17.70
2019-04-28T14:16:27.058Z,17.70
2019-04-28T14:18:56.688Z,17.65
2019-04-28T14:21:26.218Z,17.53
2019-04-28T14:23:55.720Z,17.40
2019-04-28T14:26:25.257Z,17.27
2019-04-28T14:28:54.720Z,17.15
2019-04-28T14:31:24.436Z,17.02
2019-04-28T14:33:54.027Z,16.92
2019-04-28T14:36:23.496Z,16.83
2019-04-28T14:38:53.100Z,16.78
2019-04-28T14:41:22.633Z,16.72
2019-04-28T14:43:52.108Z,16.70
2019-04-28T14:46:21.572Z,16.70
2019-04-28T14:48:51.127Z,16.74
2019-04-28T14:51:20.676Z,16.80
2019-04-28T14:53:50.149Z,16.87
2019-04-28T14:56:19.622Z,16.97
2019-04-28T14:58:49.146Z,17.06
2019-04-28T15:01:38.239Z,17.16
2019-04-28T15:04:09.397Z,17.26
2019-04-28T15:06:40.570Z,17.38
2019-04-28T15:09:26.508Z,17.46
2019-04-28T15:11:57.625Z,17.51
2019-04-28T15:14:27.109Z,17.55
2019-04-28T15:16:56.572Z,17.55
2019-04-28T15:19:26.099Z,17.49
2019-04-28T15:21:55.619Z,17.45
2019-04-28T15:24:25.078Z,17.39
2019-04-28T15:26:54.584Z,17.34
2019-04-28T15:29:24.023Z,17.27
2019-04-28T15:31:53.535Z,17.20
2019-04-28T15:34:22.979Z,17.14
2019-04-28T15:36:52.460Z,17.13
2019-04-28T15:39:21.979Z,17.07
2019-04-28T15:41:51.466Z,17.02
2019-04-28T15:44:20.949Z,16.95
2019-04-28T15:46:50.447Z,16.88
2019-04-28T15:49:19.932Z,16.80
2019-04-28T15:51:49.472Z,16.72
2019-04-28T15:54:19.026Z,16.63
2019-04-28T15:56:48.492Z,16.57
2019-04-28T15:59:18.063Z,16.51
2019-04-28T16:01:47.590Z,16.46
2019-04-28T16:04:18.419Z,16.43
2019-04-28T16:06:48.114Z,16.43
2019-04-28T16:09:17.687Z,16.43
2019-04-28T16:11:47.246Z,16.43
2019-04-28T16:14:16.769Z,16.44
2019-04-28T16:16:46.204Z,16.43
2019-04-28T16:19:15.711Z,16.44
2019-04-28T16:21:45.257Z,16.46
2019-04-28T16:24:15.944Z,16.52
2019-04-28T16:26:45.494Z,16.64
2019-04-28T16:29:15.065Z,16.85
2019-04-28T16:31:44.567Z,17.14
2019-04-28T16:34:14.049Z,17.49
2019-04-28T16:36:43.537Z,17.90
2019-04-28T16:39:13.065Z,18.39
2019-04-28T16:41:47.534Z,18.87
2019-04-28T16:44:17.348Z,19.35
2019-04-28T16:46:47.182Z,19.84
2019-04-28T16:49:16.763Z,20.33
2019-04-28T16:51:46.219Z,20.64
2019-04-28T16:54:15.779Z,20.71
2019-04-28T16:56:49.592Z,20.58
2019-04-28T16:59:23.412Z,20.35
2019-04-28T17:01:57.409Z,20.09
2019-04-28T17:04:26.982Z,19.81
2019-04-28T17:06:56.518Z,19.71
2019-04-28T17:09:26.173Z,19.67
2019-04-28T17:11:55.706Z,19.64
2019-04-28T17:14:25.277Z,19.72
2019-04-28T17:16:54.831Z,19.93
2019-04-28T17:19:24.648Z,20.32
2019-04-28T17:21:54.285Z,20.84
2019-04-28T17:24:23.931Z,21.39
2019-04-28T17:26:53.472Z,21.93
2019-04-28T17:29:23.381Z,22.44
2019-04-28T17:31:53.194Z,22.90
2019-04-28T17:34:22.757Z,23.31
2019-04-28T17:36:52.368Z,23.66
2019-04-28T17:39:23.378Z,24.00
2019-04-28T17:41:52.883Z,24.29
2019-04-28T17:44:22.412Z,24.55
2019-04-28T17:46:51.982Z,24.76
2019-04-28T17:49:23.234Z,24.93
2019-04-28T17:51:52.827Z,25.05
2019-04-28T17:54:22.296Z,25.10
2019-04-28T17:56:51.797Z,25.11
2019-04-28T17:59:24.961Z,25.13
2019-04-28T18:02:11.861Z,25.12
2019-04-28T18:04:57.831Z,25.08
2019-04-28T18:07:29.125Z,25.04
2019-04-28T18:09:58.687Z,25.00
2019-04-28T18:12:28.323Z,24.90
2019-04-28T18:14:59.485Z,24.76
2019-04-28T18:17:39.301Z,24.54
2019-04-28T18:20:12.127Z,24.28
2019-04-28T18:22:41.703Z,23.98
2019-04-28T18:25:11.767Z,23.60
2019-04-28T18:27:41.281Z,23.11
2019-04-28T18:30:12.536Z,22.54
2019-04-28T18:32:52.336Z,21.94
2019-04-28T18:35:30.709Z,21.32
2019-04-28T18:38:03.105Z,20.66
2019-04-28T18:40:40.415Z,20.04
2019-04-28T18:43:15.931Z,19.44
2019-04-28T18:45:45.485Z,18.87
2019-04-28T18:48:15.103Z,18.35
2019-04-28T18:50:44.707Z,17.86
2019-04-28T18:53:14.282Z,17.40
2019-04-28T18:55:43.877Z,16.97
2019-04-28T18:58:13.360Z,16.57
2019-04-28T19:00:44.600Z,16.19
2019-04-28T19:03:14.248Z,15.83
2019-04-28T19:05:45.388Z,15.48
2019-04-28T19:08:19.539Z,15.14
2019-04-28T19:10:56.593Z,14.79
2019-04-28T19:13:27.722Z,14.44
2019-04-28T19:16:10.858Z,14.13
2019-04-28T19:18:42.076Z,13.86
2019-04-28T19:21:11.562Z,13.59
2019-04-28T19:23:41.148Z,13.34
2019-04-28T19:26:10.832Z,13.11
2019-04-28T19:28:40.477Z,12.90
2019-04-28T19:31:09.939Z,12.70
2019-04-28T19:33:39.524Z,12.51
2019-04-28T19:36:09.162Z,12.33
2019-04-28T19:38:38.666Z,12.15
2019-04-28T19:41:08.268Z,12.00
2019-04-28T19:43:37.852Z,11.84
2019-04-28T19:46:09.041Z,11.69
2019-04-28T19:48:38.653Z,11.55
2019-04-28T19:51:08.143Z,11.40
2019-04-28T19:53:37.707Z,11.24
2019-04-28T19:56:11.584Z,11.11
2019-04-28T19:58:42.750Z,10.98
2019-04-28T20:01:16.935Z,10.85
2019-04-28T20:03:46.539Z,10.71
2019-04-28T20:06:16.073Z,10.60
2019-04-28T20:08:45.702Z,10.49
2019-04-28T20:11:16.294Z,10.39
2019-04-28T20:13:45.829Z,10.28
2019-04-28T20:16:15.326Z,10.17
2019-04-28T20:18:44.843Z,10.07
2019-04-28T20:21:14.523Z,9.98
2019-04-28T20:23:44.080Z,9.89
2019-04-28T20:26:13.584Z,9.82
2019-04-28T20:28:43.131Z,9.73
2019-04-28T20:31:12.654Z,9.65
2019-04-28T20:33:42.193Z,9.58
2019-04-28T20:36:13.294Z,9.52
2019-04-28T20:38:42.997Z,9.44
2019-04-28T20:41:22.976Z,9.36
2019-04-28T20:43:54.111Z,9.30
2019-04-28T20:46:23.616Z,9.22
2019-04-28T20:48:53.124Z,9.17
2019-04-28T20:51:41.995Z,9.11
2019-04-28T20:54:11.566Z,9.03
2019-04-28T20:56:41.078Z,8.95
2019-04-28T20:59:10.521Z,8.90
2019-04-28T21:01:40.115Z,8.86
2019-04-28T21:04:09.702Z,8.80
2019-04-28T21:06:39.154Z,8.75
2019-04-28T21:09:09.717Z,8.71
2019-04-28T21:11:39.300Z,8.65
2019-04-28T21:14:08.755Z,8.62
2019-04-28T21:16:38.331Z,8.57
2019-04-28T21:19:07.798Z,8.55
2019-04-28T21:21:37.313Z,8.51
2019-04-28T21:24:06.846Z,8.47
2019-04-28T21:26:36.316Z,8.43
2019-04-28T21:29:05.801Z,8.39
2019-04-28T21:31:35.274Z,8.34
2019-04-28T21:34:04.839Z,8.31
2019-04-28T21:36:34.314Z,8.28
2019-04-28T21:39:05.054Z,8.24
2019-04-28T21:41:34.586Z,8.21
2019-04-28T21:44:18.892Z,8.17
2019-04-28T21:46:52.469Z,8.13
2019-04-28T21:49:29.413Z,8.06
2019-04-28T21:51:58.929Z,8.03
2019-04-28T21:54:28.571Z,7.99
2019-04-28T21:56:58.019Z,7.94
2019-04-28T21:59:27.488Z,7.91
2019-04-28T22:01:58.538Z,7.87
2019-04-28T22:04:28.285Z,7.85
2019-04-28T22:06:57.914Z,7.81
2019-04-28T22:09:27.369Z,7.79
2019-04-28T22:11:56.923Z,7.75
2019-04-28T22:14:26.485Z,7.73
2019-04-28T22:16:57.173Z,7.69
2019-04-28T22:19:26.699Z,7.67
2019-04-28T22:21:56.193Z,7.64
2019-04-28T22:24:42.701Z,7.62
2019-04-28T22:27:13.151Z,7.59
2019-04-28T22:29:42.611Z,7.55
2019-04-28T22:32:12.113Z,7.53
2019-04-28T22:34:41.649Z,7.50
2019-04-28T22:37:11.141Z,7.48
2019-04-28T22:39:40.622Z,7.43
2019-04-28T22:42:10.279Z,7.40
2019-04-28T22:44:39.865Z,7.38
2019-04-28T22:47:09.325Z,7.36
2019-04-28T22:49:38.805Z,7.32
2019-04-28T22:52:08.283Z,7.29
2019-04-28T22:54:41.869Z,7.27
2019-04-28T22:57:21.682Z,7.24
2019-04-28T22:59:52.810Z,7.22
2019-04-28T23:02:23.991Z,7.19
2019-04-28T23:05:07.027Z,7.16
2019-04-28T23:07:36.493Z,7.12
2019-04-28T23:10:09.270Z,7.10
2019-04-28T23:12:38.716Z,7.07
2019-04-28T23:15:09.035Z,7.04
2019-04-28T23:17:38.572Z,7.03
2019-04-28T23:20:12.276Z,7.01
2019-04-28T23:22:47.169Z,6.98
2019-04-28T23:25:14.803Z,6.96
2019-04-28T23:27:44.312Z,6.93
2019-04-28T23:30:17.055Z,6.91
2019-04-28T23:32:46.557Z,6.88
2019-04-28T23:35:16.027Z,6.86
2019-04-28T23:37:45.582Z,6.83
2019-04-28T23:40:15.572Z,6.80
2019-04-28T23:42:46.696Z,6.79
2019-04-28T23:45:16.350Z,6.77
2019-04-28T23:47:45.970Z,6.75
2019-04-28T23:50:17.437Z,6.74
2019-04-28T23:52:48.644Z,6.72
2019-04-28T23:55:18.947Z,6.71
2019-04-28T23:57:48.474Z,6.68
